Latest Coastal Weather Observations for Portland Harbour

IDS60701

Issued at 10:41 pm CDT Sunday 22 January 2017 (issued every 10 minutes, with the page automatically refreshed every 10 minutes)

About coastal observations | Map of coastal stations | Coastal observations for SA | Marine services | Other Formats
Station Details ID: 090192 Name: PORTLAND NTC AWS Lat: -38.34 Lon: 141.61 Height: 0.0 m
Data from the previous 72 hours. | See also: Recent months for locations in South Australia
Date/Time
CDT
Temp
°C
Wind Pressure Rain since
9am
mm
Weather Cloud Vis
km
Sea
Height
m
Swell
Dir  Spd
kts
Gust
kts
hPa Trend Height
m
Period
s
Dir
22/10:30pm 19.5 CALM 0 1 1009.9 - - - - - - - - -
22/10:00pm 19.3 ESE 2 4 1010.2 - - - - - - - - -
22/09:30pm 19.5 E 5 7 1010.3 - - - - - - - - -
22/09:00pm 19.6 ESE 5 7 1010.7 - - - - - - - - -
22/08:30pm 19.6 E 5 7 1010.4 - - - - - - - - -
22/08:00pm 19.6 E 6 7 1010.4 - - - - - - - - -
22/07:30pm 19.3 E 5 7 1010.3 - - - - - - - - -
22/07:00pm 19.4 ESE 8 10 1010.5 - - - - - - - - -
22/06:30pm 19.6 SE 9 12 1010.3 - - - - - - - - -
22/06:00pm 19.4 SE 11 14 1010.4 - - - - - - - - -
22/05:30pm 19.4 SE 12 16 1010.7 - - - - - - - - -
22/05:00pm 19.7 SE 11 13 1010.9 - - - - - - - - -
22/04:30pm 20.0 ESE 10 12 1011.1 - - - - - - - - -
22/04:00pm 20.0 ESE 12 14 1011.4 - - - - - - - - -
22/03:30pm 20.0 ESE 12 15 1011.5 - - - - - - - - -
22/03:00pm 20.0 SE 11 13 1012.0 - - - - - - - - -
22/02:30pm 19.9 ESE 10 12 1012.5 - - - - - - - - -
22/02:00pm 20.0 ESE 11 14 1012.7 - - - - - - - - -
22/01:30pm 20.1 SE 11 13 1012.9 - - - - - - - - -
22/01:00pm 20.1 SE 11 13 1013.1 - - - - - - - - -
22/12:30pm 20.3 ESE 9 10 1013.5 - - - - - - - - -
22/12:00pm 20.2 ESE 6 7 1013.5 - - - - - - - - -
22/11:30am 19.6 ESE 6 7 1013.7 - - - - - - - - -
22/11:00am 19.4 ESE 5 6 1014.0 - - - - - - - - -
22/10:30am 18.3 ESE 4 6 1014.0 - - - - - - - - -
22/10:00am 17.3 E 5 6 1013.9 - - - - - - - - -
22/09:30am 17.3 NE 6 7 1014.2 - - - - - - - - -
22/09:00am 16.7 NE 5 6 1014.6 - - - - - - - - -
22/08:30am 15.9 NE 5 7 1014.6 - - - - - - - - -
22/08:00am 15.8 NE 9 10 1014.6 - - - - - - - - -
22/07:30am 16.1 NE 10 11 1014.5 - - - - - - - - -
22/07:00am 16.4 NE 11 13 1014.3 - - - - - - - - -
22/06:30am 16.4 ENE 10 12 1014.4 - - - - - - - - -
22/06:00am 16.1 ENE 10 12 1014.4 - - - - - - - - -
22/05:30am 16.1 ENE 10 11 1014.6 - - - - - - - - -
22/05:00am 15.9 NE 10 11 1014.5 - - - - - - - - -
22/04:30am 15.7 NNE 7 9 1014.7 - - - - - - - - -
22/04:00am 15.6 NNE 8 9 1014.7 - - - - - - - - -
22/03:30am 15.8 NNE 8 10 1014.9 - - - - - - - - -
22/03:00am 16.2 NNE 7 9 1014.9 - - - - - - - - -
22/02:30am 17.1 NE 9 11 1014.9 - - - - - - - - -
22/02:00am 17.3 E 9 12 1015.1 - - - - - - - - -
22/01:30am 17.2 E 9 11 1015.2 - - - - - - - - -
22/01:00am 17.1 E 8 11 1015.5 - - - - - - - - -
22/12:30am 17.3 ESE 7 9 1015.8 - - - - - - - - -
22/12:00am 17.4 ESE 8 10 1016.2 - - - - - - - - -
 
Date/Time
CDT
Temp
°C
Wind Pressure Rain since
9am
mm
Weather Cloud Vis
km
Sea
Height
m
Swell
Dir  Spd
kts
Gust
kts
hPa Trend Height
m
Period
s
Dir
21/11:30pm 17.2 SSE 6 8 1016.4 - - - - - - - - -
21/11:00pm 17.1 SSE 6 8 1016.7 - - - - - - - - -
21/10:30pm 17.3 SE 7 9 1016.8 - - - - - - - - -
21/10:00pm 17.4 SE 6 8 1016.8 - - - - - - - - -
21/09:30pm 17.4 SSE 4 6 1016.8 - - - - - - - - -
21/09:00pm 17.6 SSE 5 7 1016.6 - - - - - - - - -
21/08:30pm 17.7 SE 4 6 1016.5 - - - - - - - - -
21/08:00pm 17.9 SE 6 7 1016.2 - - - - - - - - -
21/07:30pm 18.1 SE 6 8 1016.0 - - - - - - - - -
21/07:00pm 18.3 SSE 7 10 1015.8 - - - - - - - - -
21/06:30pm 18.4 SSE 7 10 1015.4 - - - - - - - - -
21/06:00pm 18.3 SSE 8 11 1015.2 - - - - - - - - -
21/05:30pm 18.1 S 9 12 1015.3 - - - - - - - - -
21/05:00pm 18.2 S 9 12 1015.5 - - - - - - - - -
21/04:30pm 18.6 S 9 13 1015.4 - - - - - - - - -
21/04:00pm 18.8 S 11 15 1015.5 - - - - - - - - -
21/03:30pm 19.0 S 10 15 1015.6 - - - - - - - - -
21/03:00pm 18.7 S 9 11 1015.8 - - - - - - - - -
21/02:30pm 18.5 S 11 15 1015.8 - - - - - - - - -
21/02:00pm 19.1 SSW 10 13 1016.0 - - - - - - - - -
21/01:30pm 19.1 SW 10 15 1016.0 - - - - - - - - -
21/01:00pm 18.7 SW 7 11 1015.9 - - - - - - - - -
21/12:30pm 18.7 SW 6 12 1016.0 - - - - - - - - -
21/12:00pm 18.4 SW 7 11 1016.0 - - - - - - - - -
21/11:30am 18.1 WSW 8 11 1016.0 - - - - - - - - -
21/11:00am 18.0 WSW 6 10 1016.2 - - - - - - - - -
21/10:30am 17.9 SW 7 13 1016.2 - - - - - - - - -
21/10:00am 17.8 SW 8 12 1016.1 - - - - - - - - -
21/09:30am 17.4 SW 8 11 1015.8 - - - - - - - - -
21/09:00am 17.1 W 5 9 1015.7 - - - - - - - - -
21/08:30am 15.9 WNW 5 7 1015.2 - - - - - - - - -
21/08:00am 14.4 W 4 6 1015.0 - - - - - - - - -
21/07:30am 12.9 W 5 7 1014.5 - - - - - - - - -
21/07:00am 11.8 W 7 8 1014.0 - - - - - - - - -
21/06:30am 11.0 W 6 8 1013.5 - - - - - - - - -
21/06:00am 11.1 WNW 7 8 1013.3 - - - - - - - - -
21/05:30am 11.2 W 5 7 1012.9 - - - - - - - - -
21/05:00am 11.4 W 5 6 1012.7 - - - - - - - - -
21/04:30am 11.4 W 5 7 1012.5 - - - - - - - - -
21/04:00am 11.9 W 5 7 1012.1 - - - - - - - - -
21/03:30am 12.3 WNW 6 7 1012.2 - - - - - - - - -
21/03:00am 12.4 WNW 5 7 1012.3 - - - - - - - - -
21/02:30am 12.9 W 5 7 1012.2 - - - - - - - - -
21/02:00am 13.4 WNW 4 5 1012.1 - - - - - - - - -
21/01:30am 13.0 W 5 7 1012.1 - - - - - - - - -
21/01:00am 14.2 WSW 2 4 1012.0 - - - - - - - - -
21/12:30am 14.1 WSW 3 4 1012.0 - - - - - - - - -
21/12:00am 14.7 SW 5 7 1011.8 - - - - - - - - -
 
Date/Time
CDT
Temp
°C
Wind Pressure Rain since
9am
mm
Weather Cloud Vis
km
Sea
Height
m
Swell
Dir  Spd
kts
Gust
kts
hPa Trend Height
m
Period
s
Dir
20/11:30pm 15.0 SW 5 7 1011.8 - - - - - - - - -
20/11:00pm 15.2 SW 5 7 1011.6 - - - - - - - - -
20/10:30pm 15.4 SSW 5 8 1011.5 - - - - - - - - -
20/10:00pm 15.5 S 5 8 1011.3 - - - - - - - - -
20/09:30pm 15.4 S 7 9 1010.9 - - - - - - - - -
20/09:00pm 15.6 S 6 8 1010.5 - - - - - - - - -
20/08:30pm 15.7 S 7 10 1010.2 - - - - - - - - -
20/08:00pm 15.9 S 8 11 1010.0 - - - - - - - - -
20/07:30pm 16.2 SSW 10 14 1009.8 - - - - - - - - -
20/07:00pm 16.1 S 11 15 1009.5 - - - - - - - - -
20/06:30pm 16.4 SSW 12 16 1009.0 - - - - - - - - -
20/06:00pm 16.4 S 12 17 1008.7 - - - - - - - - -
20/05:30pm 15.9 S 16 21 1008.4 - - - - - - - - -
20/05:00pm 16.2 SSW 16 22 1008.3 - - - - - - - - -
20/04:30pm 16.4 SSW 17 21 1008.0 - - - - - - - - -
20/04:00pm 16.2 S 16 21 1007.7 - - - - - - - - -
20/03:30pm 16.2 SSW 16 23 1007.5 - - - - - - - - -
20/03:00pm 16.4 SSW 15 21 1007.1 - - - - - - - - -
20/02:30pm 16.4 SSW 17 22 1006.7 - - - - - - - - -
20/02:00pm 16.3 SSW 16 21 1006.2 - - - - - - - - -
20/01:30pm 16.4 SSW 16 21 1005.8 - - - - - - - - -
20/01:00pm 16.4 SSW 18 25 1005.6 - - - - - - - - -
20/12:30pm 16.7 SSW 19 26 1005.2 - - - - - - - - -
20/12:00pm 16.2 SSW 19 27 1004.7 - - - - - - - - -
20/11:30am 16.6 SSW 20 25 1004.2 - - - - - - - - -
20/11:16am 16.5 SSW 18 29 1004.0 - - - - - - - - -
20/11:00am 16.2 SSW 20 27 1003.8 - - - - - - - - -
20/10:30am 16.4 SSW 20 28 1003.4 - - - - - - - - -
20/10:00am 15.8 SSW 18 25 1002.8 - - - - - - - - -
20/09:30am 15.8 SSW 16 22 1001.9 - - - - - - - - -
20/09:00am 15.4 SSW 15 19 1001.2 - - - - - - - - -
20/08:30am 14.9 S 17 24 1000.5 - - - - - - - - -
20/08:00am 14.9 S 17 26 1000.2 - - - - - - - - -
20/07:30am 15.0 S 17 22 999.4 - - - - - - - - -
20/07:00am 14.9 S 19 26 998.6 - - - - - - - - -
20/06:30am 14.8 S 19 27 998.0 - - - - - - - - -
20/06:00am 14.8 S 21 32 997.2 - - - - - - - - -
20/05:30am 15.2 SSW 24 31 996.7 - - - - - - - - -
20/05:19am 15.6 SSW 16 31 996.4 - - - - - - - - -
20/05:00am 15.8 SSW 13 19 996.1 - - - - - - - - -
20/04:30am 15.8 SW 5 8 995.1 - - - - - - - - -
20/04:00am 15.9 NNE 7 13 994.3 - - - - - - - - -
20/03:30am 16.0 NE 13 15 993.8 - - - - - - - - -
20/03:00am 15.9 ENE 16 21 994.5 - - - - - - - - -
20/02:30am 15.7 ENE 19 22 995.3 - - - - - - - - -
20/02:00am 15.8 ENE 25 30 995.2 - - - - - - - - -
20/01:30am 16.3 E 21 28 996.0 - - - - - - - - -
20/01:28am 16.0 E 19 26 996.5 - - - - - - - - -
20/01:21am 16.4 ESE 14 19 998.5 - - - - - - - - -
20/01:00am 16.0 SE 14 17 1000.6 - - - - - - - - -
20/12:47am 16.0 SE 11 15 1001.3 - - - - - - - - -
20/12:30am 15.7 S 12 15 1003.3 - - - - - - - - -
20/12:00am 16.5 S 9 13 1003.7 - - - - - - - - -
 
Date/Time
CDT
Temp
°C
Wind Pressure Rain since
9am
mm
Weather Cloud Vis
km
Sea
Height
m
Swell
Dir  Spd
kts
Gust
kts
hPa Trend Height
m
Period
s
Dir
19/11:30pm 16.8 SSW 12 16 1004.4 - - - - - - - - -
19/11:00pm 17.3 SW 9 11 1003.7 - - - - - - - - -
19/10:39pm 17.9 SSW 9 12 1002.3 - - - - - - - - -
19/10:30pm 17.9 SE 13 18 1000.3 - - - - - - - - -

Other Formats:

Comma delimited format used in spreadsheet applications
http://www.bom.gov.au/fwo/IDS60701/IDS60701.95826.axf

JavaScript Object Notation format (JSON) in row-major order
http://www.bom.gov.au/fwo/IDS60701/IDS60701.95826.json